Time;durP1;ratioP1;P1;durP2;ratioP2;P2;SDS_P1;SDS_P2;PMS_P1;PMS_P2;Temp;Humidity;BMP_temperature;BMP_pressure;BME280_temperature;BME280_humidity;BME280_pressure;Samples;Min_cycle;Max_cycle;Signal;HPM_P1;HPM_P2
2023/05/07 00:00:15;;;;;;;14.27;10.75;;;;;;;14.79;100.00;99930.09;4443069;32;33803;-80
2023/05/07 00:02:44;;;;;;;14.93;11.23;;;;;;;14.79;100.00;99927.47;4441605;32;33544;-80
2023/05/07 00:05:12;;;;;;;15.20;11.00;;;;;;;15.00;100.00;99920.28;4442150;32;34320;-80
2023/05/07 00:07:41;;;;;;;14.90;10.85;;;;;;;14.99;99.93;99923.75;4441004;32;34383;-80
2023/05/07 00:10:10;;;;;;;16.55;11.02;;;;;;;14.65;100.00;99938.38;4430334;32;33475;-81
2023/05/07 00:12:38;;;;;;;15.85;10.55;;;;;;;14.56;100.00;99940.66;4436889;32;33842;-80
2023/05/07 00:15:06;;;;;;;13.25;9.88;;;;;;;14.79;100.00;99937.91;4449170;32;34065;-80
2023/05/07 00:17:34;;;;;;;13.48;10.10;;;;;;;14.62;100.00;99933.09;4449315;32;34219;-80
2023/05/07 00:20:03;;;;;;;14.73;10.15;;;;;;;14.62;100.00;99933.09;4437053;32;33393;-80
2023/05/07 00:22:32;;;;;;;12.40;9.60;;;;;;;14.74;99.37;99928.22;4438428;32;34165;-81
2023/05/07 00:25:00;;;;;;;11.88;9.23;;;;;;;14.65;99.44;99932.28;4445921;32;33032;-80
2023/05/07 00:27:27;;;;;;;12.52;8.93;;;;;;;14.54;100.00;99939.72;4448900;32;34402;-81
2023/05/07 00:29:54;;;;;;;13.07;9.43;;;;;;;14.28;100.00;99936.31;4440330;32;33595;-81
2023/05/07 00:32:22;;;;;;;12.13;8.60;;;;;;;14.38;100.00;99937.50;4435698;32;33105;-80
2023/05/07 00:34:50;;;;;;;10.88;8.63;;;;;;;14.49;99.63;99938.72;4450607;32;33859;-80
2023/05/07 00:37:18;;;;;;;11.35;8.48;;;;;;;14.82;97.60;99940.63;4436435;32;34151;-80
2023/05/07 00:39:46;;;;;;;12.80;9.07;;;;;;;14.55;97.40;99937.19;4449444;32;33923;-81
2023/05/07 00:42:14;;;;;;;11.57;8.48;;;;;;;14.61;97.72;99943.47;4433812;32;33604;-81
2023/05/07 00:44:42;;;;;;;12.40;8.80;;;;;;;14.60;97.91;99934.72;4433999;32;33583;-80
2023/05/07 00:47:10;;;;;;;12.43;8.90;;;;;;;14.59;97.58;99943.41;4434143;32;31882;-80
2023/05/07 00:49:46;;;;;;;12.27;8.05;;;;;;;14.65;96.90;99946.19;4433336;32;34115;-80
2023/05/07 00:52:16;;;;;;;12.00;8.90;;;;;;;14.45;97.87;99950.78;4450768;32;33761;-80
2023/05/07 00:54:44;;;;;;;11.55;8.80;;;;;;;14.36;98.50;99943.53;4439556;32;34122;-80
2023/05/07 00:57:12;;;;;;;11.13;8.43;;;;;;;14.50;97.57;99948.28;4436140;32;34331;-80
2023/05/07 00:59:40;;;;;;;12.00;9.02;;;;;;;14.44;97.47;99942.91;4441565;32;33382;-80
2023/05/07 01:02:08;;;;;;;11.77;9.50;;;;;;;14.61;97.03;99948.69;4429588;32;33539;-80
2023/05/07 01:04:36;;;;;;;13.62;9.38;;;;;;;14.74;95.94;99938.66;4424555;32;33449;-81
2023/05/07 01:07:05;;;;;;;12.93;9.45;;;;;;;14.70;95.79;99944.62;4436118;32;33684;-80
2023/05/07 01:09:35;;;;;;;12.68;10.43;;;;;;;14.40;98.75;99941.03;4415378;32;33131;-80
2023/05/07 01:12:04;;;;;;;13.23;9.95;;;;;;;14.36;100.00;99946.13;4448100;32;34551;-80
2023/05/07 01:14:32;;;;;;;12.48;9.88;;;;;;;14.55;99.48;99937.19;4435697;32;33713;-80
2023/05/07 01:17:00;;;;;;;12.88;10.00;;;;;;;14.28;100.00;99941.53;4425460;32;33264;-80
2023/05/07 01:19:30;;;;;;;12.52;9.38;;;;;;;14.11;100.00;99947.06;4443928;32;33303;-81
2023/05/07 01:22:04;;;;;;;14.48;10.10;;;;;;;15.12;95.12;99946.75;4436129;32;33368;-81
2023/05/07 01:24:33;;;;;;;13.15;9.38;;;;;;;14.48;99.42;99947.37;4434726;32;32943;-80
2023/05/07 01:27:01;;;;;;;14.52;10.02;;;;;;;15.41;90.98;99949.25;4441003;32;33891;-81
2023/05/07 01:29:29;;;;;;;11.40;8.45;;;;;;;14.71;95.76;99954.19;4451226;32;32902;-81
2023/05/07 01:31:59;;;;;;;10.23;7.50;;;;;;;16.26;85.16;99960.22;4432954;32;34066;-80
2023/05/07 01:34:30;;;;;;;11.73;7.65;;;;;;;15.85;85.59;99960.03;4424452;32;34559;-80
2023/05/07 01:36:59;;;;;;;10.65;8.43;;;;;;;14.35;95.62;99967.84;4431677;32;32565;-80
2023/05/07 01:39:29;;;;;;;10.85;7.90;;;;;;;14.30;97.40;99956.37;4436962;32;32972;-80
2023/05/07 01:41:56;;;;;;;11.00;7.80;;;;;;;14.02;98.71;99953.69;4447327;32;33499;-80
2023/05/07 01:44:24;;;;;;;9.27;7.60;;;;;;;14.22;98.42;99957.84;4435222;32;33846;-80
2023/05/07 01:46:52;;;;;;;10.90;7.70;;;;;;;13.84;99.50;99954.84;4439869;32;34074;-80
2023/05/07 01:49:20;;;;;;;9.63;7.43;;;;;;;13.71;100.00;99952.66;4432979;32;33099;-80
2023/05/07 01:51:48;;;;;;;10.30;7.50;;;;;;;13.48;100.00;99955.37;4443047;32;33417;-80
2023/05/07 01:54:16;;;;;;;11.95;7.72;;;;;;;13.67;100.00;99950.78;4438524;32;33870;-80
2023/05/07 01:56:44;;;;;;;9.38;7.30;;;;;;;13.81;99.28;99943.44;4431720;32;33255;-80
2023/05/07 01:59:13;;;;;;;10.85;7.20;;;;;;;14.12;97.29;99947.97;4427518;32;33274;-80
2023/05/07 02:01:41;;;;;;;8.65;6.72;;;;;;;13.73;98.26;99940.56;4440686;32;33487;-80
2023/05/07 02:04:10;;;;;;;10.25;7.43;;;;;;;13.98;96.20;99938.81;4425219;32;32918;-80
2023/05/07 02:06:37;;;;;;;10.47;6.83;;;;;;;13.71;97.33;99937.03;4447303;32;33793;-80
2023/05/07 02:09:05;;;;;;;10.05;6.97;;;;;;;13.84;96.82;99944.44;4443482;32;33385;-81
2023/05/07 02:11:33;;;;;;;9.23;6.18;;;;;;;14.65;93.25;99934.91;4448299;32;32853;-81
2023/05/07 02:14:00;;;;;;;8.88;6.10;;;;;;;15.16;87.27;99933.75;4438863;32;34570;-81
2023/05/07 02:16:28;;;;;;;9.27;6.95;;;;;;;15.24;86.08;99934.84;4440569;32;33566;-80
2023/05/07 02:18:56;;;;;;;10.20;7.00;;;;;;;14.16;92.13;99936.81;4445383;32;33252;-80
2023/05/07 02:21:25;;;;;;;10.35;6.93;;;;;;;13.82;97.16;99933.09;4426523;32;34559;-81
2023/05/07 02:23:52;;;;;;;9.80;6.60;;;;;;;13.59;97.37;99934.03;4446199;32;33749;-80
2023/05/07 02:26:21;;;;;;;9.10;6.50;;;;;;;13.18;99.19;99934.28;4446724;32;34894;-80
2023/05/07 02:28:48;;;;;;;8.90;6.60;;;;;;;13.58;97.50;99935.75;4447892;32;33002;-80
2023/05/07 02:31:18;;;;;;;10.05;6.62;;;;;;;13.43;96.30;99930.88;4444497;32;32821;-80
2023/05/07 02:33:45;;;;;;;8.55;6.35;;;;;;;13.57;95.47;99929.62;4449630;32;33733;-80
2023/05/07 02:36:13;;;;;;;9.45;7.12;;;;;;;13.73;94.20;99923.25;4449944;32;34633;-80
2023/05/07 02:38:41;;;;;;;11.63;7.18;;;;;;;13.57;96.25;99924.44;4450752;32;34099;-80
2023/05/07 02:41:10;;;;;;;10.23;7.32;;;;;;;13.13;98.81;99934.13;4448914;32;33718;-80
2023/05/07 02:43:37;;;;;;;10.38;8.15;;;;;;;13.53;96.82;99932.97;4448417;32;33363;-80
2023/05/07 02:46:06;;;;;;;10.55;8.23;;;;;;;13.22;98.54;99930.09;4449413;32;33507;-80
2023/05/07 02:48:35;;;;;;;12.10;8.50;;;;;;;13.25;97.43;99924.97;4437638;32;32936;-80
2023/05/07 02:51:03;;;;;;;10.77;8.13;;;;;;;13.01;99.85;99930.19;4448320;32;35177;-81
2023/05/07 02:53:31;;;;;;;9.85;7.97;;;;;;;13.01;99.61;99923.25;4427763;32;33167;-80
2023/05/07 02:56:00;;;;;;;11.67;7.90;;;;;;;12.98;100.00;99930.97;4446672;32;33086;-80
2023/05/07 02:58:28;;;;;;;10.13;7.90;;;;;;;12.81;100.00;99926.84;4437533;32;32959;-80
2023/05/07 03:00:56;;;;;;;10.00;7.33;;;;;;;13.09;100.00;99932.22;4444876;32;33757;-80
2023/05/07 03:03:25;;;;;;;10.00;7.73;;;;;;;12.90;100.00;99937.56;4443120;32;32904;-80
2023/05/07 03:05:53;;;;;;;10.20;8.27;;;;;;;13.00;100.00;99937.09;4439111;32;34329;-80
2023/05/07 03:08:20;;;;;;;11.43;7.95;;;;;;;12.94;100.00;99934.25;4446813;32;33394;-80
2023/05/07 03:10:48;;;;;;;11.73;7.85;;;;;;;12.78;100.00;99927.59;4438836;32;34547;-80
2023/05/07 03:13:16;;;;;;;10.07;7.80;;;;;;;12.96;100.00;99932.59;4443097;32;34481;-80
2023/05/07 03:15:43;;;;;;;11.23;7.82;;;;;;;13.09;99.81;99927.03;4445259;32;33777;-80
2023/05/07 03:18:11;;;;;;;12.32;8.23;;;;;;;13.36;97.63;99928.88;4433192;32;33877;-81
2023/05/07 03:20:39;;;;;;;10.48;7.97;;;;;;;13.28;97.16;99927.69;4448112;32;33981;-80
2023/05/07 03:23:08;;;;;;;13.13;8.23;;;;;;;12.99;99.00;99933.59;4443876;32;33589;-81
2023/05/07 03:25:36;;;;;;;12.82;9.10;;;;;;;13.12;98.43;99928.88;4421872;32;34417;-80
2023/05/07 03:28:03;;;;;;;12.70;9.02;;;;;;;12.96;99.66;99932.59;4438895;32;34225;-80
2023/05/07 03:30:31;;;;;;;12.00;8.50;;;;;;;13.10;98.75;99931.41;4440515;32;32236;-80
2023/05/07 03:32:59;;;;;;;11.57;8.60;;;;;;;13.36;97.68;99934.09;4432767;32;33701;-80
2023/05/07 03:35:27;;;;;;;10.65;7.75;;;;;;;13.37;95.57;99931.53;4450147;32;33645;-80
2023/05/07 03:37:55;;;;;;;11.45;8.18;;;;;;;12.87;98.98;99932.28;4438525;32;33554;-80
2023/05/07 03:40:23;;;;;;;8.57;6.62;;;;;;;12.67;100.00;99931.50;4444136;32;32816;-80
2023/05/07 03:42:51;;;;;;;8.45;6.50;;;;;;;12.58;100.00;99934.66;4439207;32;33140;-80
2023/05/07 03:45:18;;;;;;;8.75;6.10;;;;;;;12.63;100.00;99932.22;4442125;32;33615;-80
2023/05/07 03:47:47;;;;;;;9.73;5.95;;;;;;;12.68;100.00;99938.47;4444452;32;34109;-81
2023/05/07 03:50:16;;;;;;;8.70;5.93;;;;;;;13.02;99.39;99943.25;4434108;32;33531;-80
2023/05/07 03:52:44;;;;;;;9.02;6.07;;;;;;;12.93;98.57;99945.50;4438174;32;33341;-81
2023/05/07 03:55:13;;;;;;;9.63;7.12;;;;;;;12.72;100.00;99951.62;4444216;32;33626;-80
2023/05/07 03:57:41;;;;;;;14.82;10.20;;;;;;;12.62;100.00;99957.31;4447079;32;32723;-81
2023/05/07 04:00:11;;;;;;;15.40;11.15;;;;;;;12.43;100.00;99954.81;4424718;32;33685;-81
2023/05/07 04:02:46;;;;;;;20.92;13.95;;;;;;;12.86;100.00;99951.28;4434193;32;32709;-81
2023/05/07 04:05:15;;;;;;;20.20;15.23;;;;;;;12.67;100.00;99950.59;4442949;32;34333;-81
2023/05/07 04:07:44;;;;;;;22.52;14.70;;;;;;;12.63;100.00;99951.28;4451636;32;33758;-81
2023/05/07 04:10:13;;;;;;;19.00;14.80;;;;;;;12.77;100.00;99947.50;4424574;32;34446;-80
2023/05/07 04:12:41;;;;;;;17.90;13.30;;;;;;;12.83;100.00;99953.78;4448199;32;33707;-81
2023/05/07 04:15:10;;;;;;;17.65;13.88;;;;;;;12.85;100.00;99947.81;4442027;32;33701;-81
2023/05/07 04:17:37;;;;;;;17.80;13.85;;;;;;;12.79;100.00;99950.19;4442245;32;33436;-81
2023/05/07 04:20:07;;;;;;;16.58;12.82;;;;;;;12.66;100.00;99959.22;4448230;32;33781;-81
2023/05/07 04:22:34;;;;;;;17.35;12.18;;;;;;;12.91;100.00;99954.97;4438712;32;33962;-81
2023/05/07 04:25:04;;;;;;;12.80;10.15;;;;;;;13.05;100.00;99958.94;4450597;32;34017;-81
2023/05/07 04:27:33;;;;;;;13.52;9.43;;;;;;;13.01;100.00;99961.38;4445031;32;32282;-80
2023/05/07 04:30:02;;;;;;;12.27;9.00;;;;;;;13.23;100.00;99958.75;4425611;32;32204;-81
2023/05/07 04:32:32;;;;;;;11.20;9.10;;;;;;;13.16;100.00;99962.84;4424885;32;34266;-80
2023/05/07 04:35:00;;;;;;;12.60;9.13;;;;;;;13.32;100.00;99966.03;4442226;32;34423;-81
2023/05/07 04:37:27;;;;;;;12.73;9.00;;;;;;;13.28;100.00;99966.72;4442569;32;33019;-81
2023/05/07 04:39:55;;;;;;;12.70;9.07;;;;;;;13.31;100.00;99967.75;4429384;32;31848;-81
2023/05/07 04:42:24;;;;;;;12.27;9.05;;;;;;;13.42;100.00;99970.72;4437657;32;34411;-80
2023/05/07 04:44:53;;;;;;;13.13;9.30;;;;;;;13.73;100.00;99966.59;4427391;32;32413;-81
2023/05/07 04:47:22;;;;;;;12.27;9.05;;;;;;;13.73;100.00;99971.81;4451460;32;32682;-80
2023/05/07 04:49:50;;;;;;;11.67;9.07;;;;;;;13.77;99.92;99971.09;4442887;32;33303;-81
2023/05/07 04:52:18;;;;;;;13.53;9.23;;;;;;;13.93;99.03;99977.72;4424628;32;33521;-80
2023/05/07 04:54:46;;;;;;;12.98;9.73;;;;;;;14.18;97.78;99970.72;4433617;32;33116;-80
2023/05/07 04:57:14;;;;;;;12.75;9.38;;;;;;;14.38;97.00;99969.66;4431360;32;32293;-80
2023/05/07 04:59:42;;;;;;;12.80;9.07;;;;;;;14.40;96.37;99967.97;4441197;32;33147;-80
2023/05/07 05:02:10;;;;;;;13.75;9.23;;;;;;;14.48;96.66;99978.66;4439272;32;33946;-81
2023/05/07 05:04:38;;;;;;;10.40;8.30;;;;;;;14.29;98.10;99975.47;4448204;32;33052;-80
2023/05/07 05:07:06;;;;;;;10.43;8.03;;;;;;;14.54;96.50;99978.81;4440975;32;33510;-81
2023/05/07 05:09:33;;;;;;;11.32;8.27;;;;;;;14.68;95.89;99974.97;4442066;32;33646;-81
2023/05/07 05:12:01;;;;;;;11.25;7.72;;;;;;;14.66;96.17;99974.06;4447694;32;34323;-81
2023/05/07 05:14:29;;;;;;;10.82;7.90;;;;;;;14.68;96.59;99968.84;4438334;32;34517;-81
2023/05/07 05:16:57;;;;;;;10.50;6.90;;;;;;;14.62;98.00;99980.00;4431879;32;32366;-81
2023/05/07 05:19:24;;;;;;;7.93;6.10;;;;;;;15.24;93.72;99974.91;4444870;32;33861;-81
2023/05/07 05:21:52;;;;;;;9.30;6.00;;;;;;;15.03;94.47;99972.56;4425804;32;33065;-81
2023/05/07 05:24:19;;;;;;;7.37;5.30;;;;;;;16.73;85.34;99974.34;4448253;32;34660;-80
2023/05/07 05:26:47;;;;;;;9.10;6.32;;;;;;;17.07;81.21;99974.31;4439690;32;32888;-81
2023/05/07 05:29:15;;;;;;;9.43;6.80;;;;;;;16.00;86.40;99976.97;4443937;32;33536;-81
2023/05/07 05:31:42;;;;;;;9.18;7.07;;;;;;;16.39;85.32;99973.59;4442053;32;34606;-81
2023/05/07 05:34:10;;;;;;;11.85;8.90;;;;;;;16.06;88.06;99971.91;4447141;32;34528;-80
2023/05/07 05:36:40;;;;;;;10.43;8.60;;;;;;;15.69;91.72;99970.91;4429828;32;32804;-83
2023/05/07 05:39:08;;;;;;;11.35;9.18;;;;;;;16.66;87.97;99966.38;4427335;32;33577;-83
2023/05/07 05:41:36;;;;;;;12.20;8.73;;;;;;;17.96;80.70;99963.78;4429392;32;34195;-82
2023/05/07 05:44:04;;;;;;;11.20;8.50;;;;;;;17.72;79.90;99957.22;4438914;32;33669;-83
2023/05/07 05:46:31;;;;;;;9.97;7.70;;;;;;;17.36;82.60;99960.91;4434020;32;33196;-82
2023/05/07 05:49:02;;;;;;;9.93;7.97;;;;;;;18.19;78.02;99957.19;4436490;32;33991;-82
2023/05/07 05:51:31;;;;;;;8.93;6.82;;;;;;;16.88;84.99;99951.19;4438153;32;33696;-83
2023/05/07 05:53:59;;;;;;;9.23;6.40;;;;;;;18.27;77.10;99954.69;4425867;32;34200;-82
2023/05/07 05:56:27;;;;;;;13.40;7.20;;;;;;;18.57;76.80;99950.78;4442151;32;33587;-83
2023/05/07 05:58:54;;;;;;;10.38;7.40;;;;;;;17.20;82.83;99949.25;4432831;32;33231;-83
2023/05/07 06:01:22;;;;;;;10.33;6.80;;;;;;;17.49;81.84;99957.66;4426197;32;34601;-82
2023/05/07 06:03:50;;;;;;;9.40;6.60;;;;;;;17.17;83.61;99953.53;4435252;32;33300;-83
2023/05/07 06:06:18;;;;;;;9.55;7.57;;;;;;;16.60;85.94;99971.47;4424604;32;32807;-83
2023/05/07 06:08:46;;;;;;;10.25;7.78;;;;;;;16.64;87.72;99960.22;4440219;32;33194;-83
2023/05/07 06:11:14;;;;;;;11.05;8.48;;;;;;;16.97;85.64;99961.84;4433419;32;33298;-83
2023/05/07 06:13:43;;;;;;;11.12;8.35;;;;;;;17.21;84.93;99965.81;4413588;32;33562;-83
2023/05/07 06:16:11;;;;;;;11.25;8.10;;;;;;;17.03;84.88;99961.09;4417650;32;32214;-83
2023/05/07 06:18:39;;;;;;;10.00;7.47;;;;;;;17.38;82.76;99958.31;4445145;32;33279;-83
2023/05/07 06:21:06;;;;;;;10.45;7.68;;;;;;;17.23;83.08;99964.13;4438490;32;33852;-84
2023/05/07 06:23:34;;;;;;;9.90;7.37;;;;;;;18.14;79.68;99963.22;4418297;32;32252;-82
2023/05/07 06:26:03;;;;;;;6.10;4.40;;;;;;;19.02;77.29;99968.94;4430963;32;33258;-82
2023/05/07 06:28:35;;;;;;;6.45;4.40;;;;;;;19.64;71.30;99960.06;4443527;32;34214;-84
2023/05/07 06:31:13;;;;;;;6.82;4.37;;;;;;;19.68;70.67;99966.19;4436578;32;33128;-83
2023/05/07 06:33:42;;;;;;;7.55;4.97;;;;;;;19.21;70.23;99963.94;4442136;32;32377;-83
2023/05/07 06:36:10;;;;;;;6.82;4.32;;;;;;;19.30;71.80;99963.19;4432991;32;33791;-83
2023/05/07 06:38:38;;;;;;;6.25;4.32;;;;;;;20.01;69.93;99964.81;4433918;32;33882;-77
2023/05/07 06:41:06;;;;;;;6.57;4.37;;;;;;;19.53;71.20;99966.94;4433977;32;34337;-82
2023/05/07 06:43:35;;;;;;;6.35;4.30;;;;;;;20.52;67.22;99965.22;4442307;32;34055;-82
2023/05/07 06:46:06;;;;;;;7.80;4.57;;;;;;;19.66;70.00;99967.94;4443122;32;33270;-80
2023/05/07 06:48:34;;;;;;;6.87;4.95;;;;;;;19.88;69.49;99968.22;4441687;32;33851;-81
2023/05/07 06:51:03;;;;;;;6.97;5.10;;;;;;;19.68;68.34;99976.72;4442608;32;32569;-81
2023/05/07 06:53:31;;;;;;;7.28;4.70;;;;;;;20.18;67.11;99973.72;4426577;32;31905;-81
2023/05/07 06:55:59;;;;;;;7.27;4.80;;;;;;;20.48;66.42;99972.22;4439165;32;33374;-80
2023/05/07 06:58:27;;;;;;;6.95;4.62;;;;;;;20.96;64.26;99965.53;4427824;32;33512;-81
2023/05/07 07:00:54;;;;;;;6.50;4.50;;;;;;;20.91;65.16;99961.97;4430261;32;33788;-80
2023/05/07 07:03:22;;;;;;;7.70;4.78;;;;;;;21.07;64.82;99973.47;4436994;32;33587;-81
2023/05/07 07:05:54;;;;;;;6.93;4.87;;;;;;;20.62;64.30;99969.72;4439954;32;31591;-80
2023/05/07 07:08:21;;;;;;;7.53;4.37;;;;;;;20.34;66.95;99973.84;4415397;32;31677;-80
2023/05/07 07:10:50;;;;;;;5.82;4.32;;;;;;;20.35;66.44;99986.16;4425063;32;32158;-79
2023/05/07 07:13:17;;;;;;;6.18;4.40;;;;;;;19.98;68.84;99991.09;4437162;32;34077;-81
2023/05/07 07:15:45;;;;;;;6.00;4.10;;;;;;;19.99;69.59;99991.09;4442813;32;33229;-81
2023/05/07 07:18:13;;;;;;;6.97;4.70;;;;;;;20.31;67.86;99990.50;4412479;32;30770;-81
2023/05/07 07:20:41;;;;;;;6.90;5.20;;;;;;;19.82;69.87;99996.19;4430530;32;32097;-81
2023/05/07 07:23:09;;;;;;;6.47;5.10;;;;;;;19.64;71.59;99995.94;4435329;32;33279;-80
2023/05/07 07:25:36;;;;;;;7.40;4.60;;;;;;;20.49;69.95;100008.16;4435083;32;32769;-83
2023/05/07 07:28:05;;;;;;;7.82;4.70;;;;;;;19.39;72.25;100005.28;4436933;32;33892;-80
2023/05/07 07:30:32;;;;;;;8.40;6.75;;;;;;;19.55;71.89;100006.37;4434583;32;33772;-80
2023/05/07 07:33:02;;;;;;;11.43;8.88;;;;;;;19.00;74.72;100011.78;4427253;32;34065;-79
2023/05/07 07:35:34;;;;;;;13.05;9.05;;;;;;;19.04;74.89;100009.25;4441128;32;32253;-79
2023/05/07 07:38:02;;;;;;;11.23;8.68;;;;;;;19.84;74.01;100015.47;4421314;32;33313;-80
2023/05/07 07:40:29;;;;;;;11.35;8.68;;;;;;;20.81;69.20;100020.72;4435231;32;33881;-80
2023/05/07 07:42:57;;;;;;;11.05;8.05;;;;;;;21.10;68.50;100017.41;4435975;32;33837;-80
2023/05/07 07:45:25;;;;;;;11.60;8.93;;;;;;;21.02;67.13;100018.22;4449808;32;32801;-80
2023/05/07 07:47:52;;;;;;;11.95;9.20;;;;;;;21.29;67.53;100015.75;4413132;32;33530;-80
2023/05/07 07:50:20;;;;;;;12.68;10.10;;;;;;;21.18;67.16;100007.78;4436118;32;33901;-80
2023/05/07 07:53:07;;;;;;;13.52;10.77;;;;;;;20.97;67.08;100014.66;4433247;32;33852;-80
2023/05/07 07:55:39;;;;;;;14.32;10.77;;;;;;;19.42;73.70;100016.72;4426017;32;32089;-80
2023/05/07 07:58:07;;;;;;;14.68;11.80;;;;;;;20.39;71.81;100024.75;4428599;32;34020;-81
2023/05/07 08:00:34;;;;;;;16.60;12.55;;;;;;;19.78;74.98;100025.94;4424591;32;33851;-83
2023/05/07 08:03:03;;;;;;;17.42;13.30;;;;;;;18.86;80.86;100027.34;4441936;32;34531;-81
2023/05/07 08:05:31;;;;;;;15.90;12.77;;;;;;;18.65;82.21;100028.75;4440820;32;33933;-80
2023/05/07 08:07:59;;;;;;;15.35;12.65;;;;;;;18.81;81.63;100026.38;4430909;32;34468;-80
2023/05/07 08:10:27;;;;;;;16.23;12.70;;;;;;;18.65;81.87;100020.88;4433817;32;33841;-80
2023/05/07 08:12:55;;;;;;;15.32;11.95;;;;;;;18.57;82.32;100026.87;4413433;32;34411;-80
2023/05/07 08:15:23;;;;;;;15.13;11.77;;;;;;;20.24;75.68;100014.97;4442665;32;34242;-80
2023/05/07 08:17:51;;;;;;;14.82;11.65;;;;;;;19.42;77.37;100015.84;4430833;32;33577;-81
2023/05/07 08:20:19;;;;;;;14.50;11.93;;;;;;;18.84;79.49;100021.19;4429662;32;33374;-80
2023/05/07 08:22:46;;;;;;;13.90;11.50;;;;;;;19.19;78.92;100008.53;4427449;32;32512;-80
2023/05/07 08:25:14;;;;;;;13.30;10.30;;;;;;;19.23;78.64;100009.47;4425494;32;34278;-81
2023/05/07 08:27:42;;;;;;;13.90;10.95;;;;;;;20.76;72.26;100014.53;4444942;32;34251;-81
2023/05/07 08:30:10;;;;;;;13.40;10.63;;;;;;;19.97;73.95;100015.59;4435297;32;33509;-80
2023/05/07 08:32:38;;;;;;;13.80;10.52;;;;;;;20.44;73.44;100012.53;4438223;32;34518;-80
2023/05/07 08:35:06;;;;;;;13.90;9.95;;;;;;;20.76;70.84;100015.41;4430601;32;33181;-80
2023/05/07 08:37:34;;;;;;;12.90;10.60;;;;;;;21.34;68.54;100009.63;4430232;32;33386;-80
2023/05/07 08:40:02;;;;;;;13.38;10.02;;;;;;;19.23;76.47;100025.22;4438531;32;33775;-80
2023/05/07 08:42:35;;;;;;;12.82;9.63;;;;;;;19.97;75.33;100018.22;4433574;32;32845;-80
2023/05/07 08:45:08;;;;;;;12.07;9.90;;;;;;;20.49;73.16;100021.31;4438208;32;33110;-80
2023/05/07 08:47:43;;;;;;;12.90;9.30;;;;;;;19.89;75.09;100022.53;4439375;32;33475;-79
2023/05/07 08:50:11;;;;;;;11.70;9.67;;;;;;;19.29;75.03;100016.56;4452383;32;33420;-80
2023/05/07 08:52:40;;;;;;;11.10;9.40;;;;;;;19.08;76.67;100014.53;4426020;32;33895;-80
2023/05/07 08:55:10;;;;;;;11.52;9.10;;;;;;;20.60;71.18;100018.81;4431832;32;33868;-79
2023/05/07 08:57:38;;;;;;;11.48;8.50;;;;;;;21.38;68.28;100016.66;4443230;32;32922;-80
2023/05/07 09:00:09;;;;;;;9.85;7.80;;;;;;;20.14;71.12;100026.28;4440810;32;33734;-80
2023/05/07 09:02:37;;;;;;;11.88;8.90;;;;;;;20.37;68.69;100031.75;4423737;32;33686;-80
2023/05/07 09:05:06;;;;;;;12.13;8.98;;;;;;;20.22;70.60;100027.22;4426637;32;33014;-80
2023/05/07 09:07:34;;;;;;;9.55;7.65;;;;;;;21.00;68.20;100019.09;4446057;32;34216;-81
2023/05/07 09:10:04;;;;;;;9.70;7.70;;;;;;;22.23;62.92;100014.22;4426977;32;34413;-80
2023/05/07 09:12:34;;;;;;;9.40;7.30;;;;;;;21.42;65.28;100017.53;4440537;32;33967;-80
2023/05/07 09:15:03;;;;;;;11.25;7.82;;;;;;;22.35;62.90;100016.06;4450200;32;33222;-81
2023/05/07 09:17:32;;;;;;;9.20;6.80;;;;;;;22.69;61.73;100013.37;4443953;32;34195;-82
2023/05/07 09:20:05;;;;;;;9.52;7.22;;;;;;;22.73;59.42;100013.37;4449219;32;34533;-81
2023/05/07 09:22:38;;;;;;;7.93;6.03;;;;;;;22.42;61.30;100015.16;4440198;32;33304;-81
2023/05/07 09:25:06;;;;;;;8.30;6.50;;;;;;;22.83;58.66;100016.91;4442904;32;33810;-80
2023/05/07 09:27:36;;;;;;;6.97;4.97;;;;;;;21.92;61.74;100011.59;4446435;32;33670;-81
2023/05/07 09:30:07;;;;;;;7.47;5.12;;;;;;;21.75;60.57;100016.81;4443306;32;33969;-81
2023/05/07 09:32:37;;;;;;;7.45;4.57;;;;;;;22.60;56.73;100018.66;4448344;32;33576;-81
2023/05/07 09:35:06;;;;;;;7.40;5.10;;;;;;;22.31;58.35;100017.81;4435738;32;31618;-81
2023/05/07 09:37:34;;;;;;;6.97;5.30;;;;;;;23.00;54.25;100008.03;4445111;32;33406;-80
2023/05/07 09:40:02;;;;;;;9.07;6.07;;;;;;;23.00;54.42;100005.41;4425661;32;34053;-80
2023/05/07 09:42:29;;;;;;;7.30;5.03;;;;;;;21.77;59.09;100014.19;4435940;32;33861;-80
2023/05/07 09:44:59;;;;;;;7.20;5.05;;;;;;;23.08;54.40;100007.19;4441209;32;33413;-81
2023/05/07 09:47:30;;;;;;;7.22;5.15;;;;;;;23.34;53.35;100004.44;4418586;32;33408;-81
2023/05/07 09:49:59;;;;;;;7.90;5.75;;;;;;;22.82;55.02;100009.84;4433792;32;33625;-80
2023/05/07 09:52:33;;;;;;;8.27;5.97;;;;;;;22.90;55.08;100008.06;4441200;32;34048;-81
2023/05/07 09:55:02;;;;;;;8.00;6.03;;;;;;;22.22;58.55;100012.50;4442426;32;33707;-81
2023/05/07 09:57:30;;;;;;;10.82;6.28;;;;;;;21.86;59.41;100014.19;4452464;32;34915;-79
2023/05/07 09:59:59;;;;;;;8.25;6.12;;;;;;;22.32;56.74;100014.28;4434275;32;33701;-79
2023/05/07 10:02:30;;;;;;;7.87;6.30;;;;;;;21.76;58.53;100015.91;4436939;32;34542;-79
2023/05/07 10:05:00;;;;;;;11.48;6.75;;;;;;;22.02;58.52;100028.31;4447017;32;33469;-80
2023/05/07 10:07:28;;;;;;;10.70;7.28;;;;;;;21.21;61.55;100023.59;4431357;32;32710;-81
2023/05/07 10:09:57;;;;;;;9.43;7.60;;;;;;;21.55;60.05;100015.84;4444073;32;33889;-80
2023/05/07 10:12:26;;;;;;;9.73;7.78;;;;;;;21.25;61.65;100020.09;4434277;32;33617;-80
2023/05/07 10:14:54;;;;;;;9.32;7.28;;;;;;;20.58;65.37;100024.03;4443542;32;33793;-80
2023/05/07 10:17:23;;;;;;;10.13;7.37;;;;;;;21.69;61.68;100016.81;4446020;32;33656;-80
2023/05/07 10:19:53;;;;;;;9.75;7.05;;;;;;;21.76;61.37;100018.56;4445611;32;33050;-80
2023/05/07 10:22:21;;;;;;;10.32;7.03;;;;;;;20.95;61.88;100021.69;4435373;32;33511;-80
2023/05/07 10:24:52;;;;;;;11.32;7.75;;;;;;;21.29;60.25;100016.59;4426455;32;33008;-80
2023/05/07 10:27:20;;;;;;;10.35;7.30;;;;;;;21.09;62.37;100024.38;4426434;32;34039;-79
2023/05/07 10:30:00;;;;;;;8.85;6.50;;;;;;;21.38;61.66;100011.38;4447299;32;34398;-81
2023/05/07 10:32:38;;;;;;;10.75;7.70;;;;;;;21.56;61.40;100015.88;4446103;32;33683;-78
2023/05/07 10:35:13;;;;;;;9.80;7.15;;;;;;;20.78;62.65;100034.75;4441802;32;33253;-80
2023/05/07 10:37:41;;;;;;;8.38;6.68;;;;;;;21.28;62.09;100022.75;4445624;32;33196;-79
2023/05/07 10:40:11;;;;;;;7.80;6.18;;;;;;;20.93;61.16;100017.28;4442863;32;34497;-80
2023/05/07 10:42:55;;;;;;;8.35;5.60;;;;;;;21.88;57.27;100016.84;4448679;32;34134;-79
2023/05/07 10:45:24;;;;;;;6.37;4.97;;;;;;;21.92;56.09;100013.31;4430768;32;33226;-79
2023/05/07 10:48:10;;;;;;;7.40;5.65;;;;;;;21.19;57.05;100014.81;4435737;32;33258;-80
2023/05/07 10:51:18;;;;;;;8.98;5.97;;;;;;;21.95;56.82;100013.34;4444021;32;32891;-79
2023/05/07 10:53:46;;;;;;;8.10;5.95;;;;;;;20.61;59.12;100016.22;4446627;32;33132;-79
2023/05/07 10:56:21;;;;;;;8.25;5.93;;;;;;;21.35;59.08;100011.34;4439231;32;34005;-80
2023/05/07 10:58:49;;;;;;;8.60;5.72;;;;;;;21.07;59.59;100005.06;4433704;32;32632;-82
2023/05/07 11:02:10;;;;;;;6.85;4.85;;;;;;;20.98;59.04;100005.91;4413832;32;31856;-82
2023/05/07 11:04:40;;;;;;;6.87;3.78;;;;;;;22.13;55.34;100008.06;4405902;32;33010;-83
2023/05/07 11:07:08;;;;;;;5.15;3.20;;;;;;;22.21;52.93;100009.84;4445456;32;33192;-83
2023/05/07 11:09:52;;;;;;;6.50;3.50;;;;;;;21.93;52.67;99996.62;4438334;32;33473;-82
2023/05/07 11:12:35;;;;;;;5.53;3.20;;;;;;;23.50;50.70;99993.78;4449003;32;32530;-82
2023/05/07 11:15:08;;;;;;;4.90;2.83;;;;;;;23.66;47.58;99984.91;4442059;32;32891;-80
2023/05/07 11:17:56;;;;;;;4.10;2.60;;;;;;;24.35;45.09;99988.84;4442337;32;32730;-81
2023/05/07 11:20:43;;;;;;;4.65;2.70;;;;;;;23.96;43.89;99996.19;4415806;32;32988;-80
2023/05/07 11:23:32;;;;;;;4.80;3.08;;;;;;;24.31;43.41;99997.69;4437681;32;33092;-79
2023/05/07 11:26:08;;;;;;;5.45;3.05;;;;;;;24.12;43.06;100000.47;4425980;32;33160;-79
2023/05/07 11:28:38;;;;;;;5.00;2.75;;;;;;;24.56;42.00;99992.22;4431049;32;33226;-79
2023/05/07 11:31:05;;;;;;;6.83;2.80;;;;;;;24.75;43.68;99996.44;4443897;32;33527;-81
2023/05/07 11:33:34;;;;;;;4.43;2.90;;;;;;;24.24;43.18;99998.63;4441418;32;34571;-81